< Typhoon 202112 2021 Season Typhoon 202114 >
Typhoon 202113 (CONSON)
General InformationTrack Information on Google MapsDetailed Wind InformationForecast History on Google MapsAccess Analytics MapList of All Images || NewsDisaster Info.JMA Disaster Info. XMLWeblogTrackbackTyphoon FrontTwiphoonTyphoon Now!Typhoon ImaginationResourceGoogle EarthGE AnimationAtom FeedGeoJSON
Detalied Best Track (Time Zone = UTC)
Year Month Day Hour Lat. Long. Pressure (hPa) Wind (kt) Class Image Chart
2021 9 5 06 9.8 130.2 1006 0 2 Image Chart
2021 9 5 12 10.0 129.6 1006 0 2 Image Chart
2021 9 5 18 10.0 128.6 1004 0 2 Image Chart
2021 9 6 00 10.3 127.8 1002 35 3 Image Chart
2021 9 6 06 10.8 126.8 998 45 3 Image Chart
2021 9 6 12 11.1 126.0 994 50 4 Image Chart
2021 9 6 18 11.7 124.9 994 50 4 Image Chart
2021 9 7 00 12.1 124.2 998 45 3 Image Chart
2021 9 7 06 12.4 123.6 998 45 3 Image Chart
2021 9 7 12 12.9 122.6 998 45 3 Image Chart
2021 9 7 18 13.2 122.1 998 45 3 Image Chart
2021 9 8 00 13.7 121.6 998 45 3 Image Chart
2021 9 8 06 14.2 120.7 998 45 3 Image Chart
2021 9 8 12 15.0 120.1 998 45 3 Image Chart
2021 9 8 18 15.4 119.1 998 45 3 Image Chart
2021 9 9 00 15.4 118.2 994 45 3 Image Chart
2021 9 9 06 15.8 117.0 994 45 3 Image Chart
2021 9 9 12 15.8 115.1 992 50 4 Image Chart
2021 9 9 18 15.9 114.1 992 50 4 Image Chart
2021 9 10 00 15.6 113.0 992 50 4 Image Chart
2021 9 10 06 15.6 112.2 992 50 4 Image Chart
2021 9 10 12 15.7 111.5 992 50 4 Image Chart
2021 9 10 18 15.7 110.8 992 50 4 Image Chart
2021 9 11 00 15.6 110.0 992 50 4 Image Chart
2021 9 11 06 15.6 109.8 992 50 4 Image Chart
2021 9 11 12 15.3 109.3 994 40 3 Image Chart
2021 9 11 18 15.1 109.2 996 0 2 Image Chart
2021 9 12 00 15.2 109.2 996 0 2 Image Chart
2021 9 12 06 15.3 109.1 998 0 2 Image Chart
2021 9 12 12 15.3 109.1 1000 0 2 Image Chart
2021 9 12 18 15.6 109.0 1000 0 2 Image Chart
2021 9 13 00 15.8 108.8 1002 0 2 Image Chart
2021 9 13 06 16.1 108.5 1002 0 2 Image Chart
2021 9 13 12 15.9 107.8 1004 0 2 Image Chart
Japan Meteorological Agency Best Track Data | Correction Date : 2021-12-14
< Typhoon 202112 2021 Season Typhoon 202114 >

Help